Time;durP1;ratioP1;P1;durP2;ratioP2;P2;SDS_P1;SDS_P2;PMS_P1;PMS_P2;Temp;Humidity;BMP_temperature;BMP_pressure;BME280_temperature;BME280_humidity;BME280_pressure;Samples;Min_cycle;Max_cycle;Signal;HPM_P1;HPM_P2
2021/10/27 00:00:08;;;;;;;50.50;28.30;;;;;;;-1.58;80.56;98261.30;117013;1177;59510;-69
2021/10/27 00:03:04;;;;;;;44.90;24.30;;;;;;;-1.61;81.09;98263.39;116863;1177;59484;-69
2021/10/27 00:05:34;;;;;;;38.30;21.30;;;;;;;-1.63;83.19;98260.10;116892;1177;70561;-72
2021/10/27 00:08:04;;;;;;;45.70;24.90;;;;;;;-1.65;83.22;98258.48;116931;1174;68360;-71
2021/10/27 00:10:34;;;;;;;45.50;27.30;;;;;;;-1.68;82.64;98257.17;116953;1177;68476;-73
2021/10/27 00:13:06;;;;;;;49.80;26.90;;;;;;;-1.67;83.02;98263.30;116849;1177;59519;-68
2021/10/27 00:15:36;;;;;;;56.10;28.20;;;;;;;-1.67;82.36;98262.61;116962;1177;59550;-69
2021/10/27 00:18:06;;;;;;;50.10;26.70;;;;;;;-1.69;81.51;98258.66;116962;1177;71438;-70
2021/10/27 00:20:36;;;;;;;47.80;25.10;;;;;;;-1.69;82.66;98261.15;117071;1177;68172;-68
2021/10/27 00:23:05;;;;;;;46.20;27.20;;;;;;;-1.69;82.98;98259.84;116936;1177;69194;-69
2021/10/27 00:25:34;;;;;;;40.30;22.10;;;;;;;-1.66;82.98;98265.20;117084;1177;59530;-69
2021/10/27 00:28:04;;;;;;;45.30;24.60;;;;;;;-1.65;83.98;98262.84;116873;1178;59468;-68
2021/10/27 00:30:34;;;;;;;46.40;23.20;;;;;;;-1.63;85.11;98260.27;116953;1174;71494;-71
2021/10/27 00:33:04;;;;;;;54.80;27.40;;;;;;;-1.63;85.26;98261.95;117001;1177;68224;-71
2021/10/27 00:35:34;;;;;;;55.20;27.70;;;;;;;-1.63;84.18;98263.43;116864;1179;68474;-70
2021/10/27 00:38:04;;;;;;;57.80;30.60;;;;;;;-1.63;83.63;98262.20;116957;1177;59526;-71
2021/10/27 00:40:34;;;;;;;53.40;29.80;;;;;;;-1.65;81.96;98257.86;116968;1177;59545;-69
2021/10/27 00:43:04;;;;;;;52.80;28.80;;;;;;;-1.65;83.63;98261.98;116834;1177;70569;-70
2021/10/27 00:45:34;;;;;;;47.50;27.80;;;;;;;-1.67;84.70;98260.92;116853;1178;67597;-70
2021/10/27 00:48:05;;;;;;;41.60;22.20;;;;;;;-1.68;83.88;98264.52;117004;1177;69472;-68
2021/10/27 00:50:36;;;;;;;50.70;29.30;;;;;;;-1.69;83.52;98263.23;116827;1178;59483;-68
2021/10/27 00:53:07;;;;;;;53.10;30.40;;;;;;;-1.73;82.06;98257.61;116910;1177;59502;-69
2021/10/27 00:55:39;;;;;;;56.70;31.50;;;;;;;-1.77;81.96;98259.52;116924;1177;71754;-68
2021/10/27 00:58:09;;;;;;;54.80;31.70;;;;;;;-1.81;81.47;98260.05;117008;1177;67860;-69
2021/10/27 01:00:39;;;;;;;57.60;33.40;;;;;;;-1.85;81.86;98267.32;116846;1178;69204;-72
2021/10/27 01:03:08;;;;;;;53.80;31.10;;;;;;;-1.89;81.81;98267.02;116819;1177;59625;-70
2021/10/27 01:05:37;;;;;;;55.00;30.70;;;;;;;-1.93;81.75;98265.58;117058;1177;59554;-70
2021/10/27 01:08:08;;;;;;;54.00;32.00;;;;;;;-1.96;83.59;98263.64;116977;1177;70458;-68
2021/10/27 01:10:40;;;;;;;;;;;;;;;-1.98;83.96;98266.48;116976;1178;67494;-68
2021/10/27 01:13:09;;;;;;;46.60;26.80;;;;;;;-1.99;85.46;98268.77;116986;1177;68538;-68
2021/10/27 01:15:40;;;;;;;35.00;19.70;;;;;;;-2.02;84.34;98268.99;116930;1177;59468;-68
2021/10/27 01:18:10;;;;;;;42.70;24.70;;;;;;;-2.03;85.07;98268.95;116846;1177;59510;-72
2021/10/27 01:20:40;;;;;;;42.60;22.30;;;;;;;-2.05;85.20;98266.17;117003;1177;71373;-71
2021/10/27 01:23:10;;;;;;;40.50;23.60;;;;;;;-2.07;85.83;98267.98;116858;1179;68332;-71
2021/10/27 01:25:39;;;;;;;45.90;25.60;;;;;;;-2.09;85.82;98269.23;116959;1177;69048;-70
2021/10/27 01:28:09;;;;;;;48.60;26.70;;;;;;;-2.11;85.03;98272.05;116886;1177;59517;-71
2021/10/27 01:30:38;;;;;;;50.40;27.70;;;;;;;-2.14;83.61;98266.05;116850;1179;59531;-74
2021/10/27 01:33:08;;;;;;;40.20;24.10;;;;;;;-2.15;84.41;98266.46;116944;1174;71368;-75
2021/10/27 01:35:38;;;;;;;46.30;24.80;;;;;;;-2.16;86.04;98261.17;117007;1177;67605;-71
2021/10/27 01:38:08;;;;;;;52.90;26.70;;;;;;;-2.17;85.75;98262.98;116719;1179;69044;-71
2021/10/27 01:40:39;;;;;;;37.80;20.80;;;;;;;-2.19;84.80;98269.54;117070;1177;59555;-71
2021/10/27 01:43:08;;;;;;;43.00;26.30;;;;;;;-2.21;84.72;98270.45;116826;1179;59494;-72
2021/10/27 01:45:38;;;;;;;46.80;26.80;;;;;;;-2.25;83.99;98273.51;116947;1177;71235;-74
2021/10/27 01:48:10;;;;;;;50.90;26.90;;;;;;;-2.24;84.30;98277.73;116899;1180;68411;-70
2021/10/27 01:50:41;;;;;;;48.20;28.00;;;;;;;-2.23;85.56;98283.03;116962;1177;69175;-72
2021/10/27 01:53:13;;;;;;;46.80;28.50;;;;;;;-2.25;84.15;98284.58;117004;1177;59554;-72
2021/10/27 01:55:43;;;;;;;50.00;27.90;;;;;;;-2.27;82.90;98284.45;116943;1178;59586;-72
2021/10/27 01:58:13;;;;;;;56.90;31.00;;;;;;;-2.30;82.92;98287.70;117041;1177;71181;-72
2021/10/27 02:00:43;;;;;;;55.90;29.00;;;;;;;-2.35;82.87;98285.15;116870;1177;67668;-70
2021/10/27 02:03:14;;;;;;;51.60;27.60;;;;;;;-2.42;82.42;98287.27;116927;1178;68247;-70
2021/10/27 02:05:45;;;;;;;50.20;27.80;;;;;;;-2.48;82.31;98287.27;116946;1177;59918;-70
2021/10/27 02:08:15;;;;;;;40.70;22.20;;;;;;;-2.54;82.44;98287.45;117231;1177;59557;-73
2021/10/27 02:10:44;;;;;;;51.00;27.10;;;;;;;-2.57;83.73;98287.95;117226;1177;71338;-71
2021/10/27 02:13:15;;;;;;;55.50;32.90;;;;;;;-2.60;82.64;98288.77;116910;1177;67608;-75
2021/10/27 02:15:45;;;;;;;56.40;32.60;;;;;;;-2.63;82.32;98292.48;116872;1177;69117;-74
2021/10/27 02:18:14;;;;;;;48.60;27.70;;;;;;;-2.66;82.35;98291.34;116996;1177;59606;-68
2021/10/27 02:20:46;;;;;;;59.00;28.80;;;;;;;-2.70;82.52;98295.55;116950;1177;59592;-70
2021/10/27 02:23:17;;;;;;;60.70;29.00;;;;;;;-2.76;82.51;98296.80;116915;1177;71342;-72
2021/10/27 02:25:46;;;;;;;45.40;25.20;;;;;;;-2.81;82.32;98298.89;116896;1177;67666;-69
2021/10/27 02:28:16;;;;;;;56.60;28.40;;;;;;;-2.82;84.61;98303.88;117035;1177;69190;-69
2021/10/27 02:30:47;;;;;;;46.40;26.30;;;;;;;-2.83;84.67;98305.96;117006;1177;59495;-70
2021/10/27 02:33:18;;;;;;;;;;;;;;;-2.83;84.14;98312.59;116984;1177;59542;-71
2021/10/27 02:35:48;;;;;;;45.00;25.10;;;;;;;-2.83;84.34;98314.38;117060;1177;70844;-69
2021/10/27 02:38:41;;;;;;;49.00;25.80;;;;;;;-2.85;83.74;98304.64;116954;1170;68511;-68
2021/10/27 02:41:14;;;;;;;56.00;30.30;;;;;;;-2.86;83.40;98313.02;116890;1177;69186;-71
2021/10/27 02:43:45;;;;;;;53.30;28.70;;;;;;;-2.89;82.95;98315.42;116964;1177;59520;-71
2021/10/27 02:46:15;;;;;;;35.80;19.20;;;;;;;-2.95;82.88;98316.95;116934;1177;59539;-69
2021/10/27 02:48:44;;;;;;;52.50;29.20;;;;;;;-2.98;84.35;98322.17;117079;1177;70382;-70
2021/10/27 02:51:16;;;;;;;46.00;25.00;;;;;;;-3.01;84.44;98323.54;116871;1177;68585;-72
2021/10/27 02:53:45;;;;;;;;;;;;;;;-3.02;85.00;98330.17;116977;1177;68483;-69
2021/10/27 02:56:14;;;;;;;44.70;24.00;;;;;;;-2.98;85.37;98330.60;116990;1177;59520;-70
2021/10/27 02:58:44;;;;;;;51.60;26.10;;;;;;;-2.97;86.19;98333.52;116940;1176;59533;-69
2021/10/27 03:01:15;;;;;;;46.30;27.20;;;;;;;-2.98;85.47;98343.30;117151;1177;70735;-70
2021/10/27 03:03:46;;;;;;;47.70;25.30;;;;;;;-2.93;86.79;98346.52;116926;1177;68639;-71
2021/10/27 03:06:17;;;;;;;54.10;29.20;;;;;;;-2.93;86.58;98343.42;116972;1177;69232;-71
2021/10/27 03:08:47;;;;;;;57.40;33.80;;;;;;;-2.93;85.26;98341.77;117014;1177;59589;-69
2021/10/27 03:11:17;;;;;;;66.20;31.20;;;;;;;-2.92;84.85;98340.48;116921;1177;59529;-70
2021/10/27 03:13:47;;;;;;;56.90;31.30;;;;;;;-2.92;84.59;98343.61;116938;1170;71424;-71
2021/10/27 03:16:17;;;;;;;57.20;30.30;;;;;;;-2.94;83.93;98344.45;117037;1178;67636;-72
2021/10/27 03:18:47;;;;;;;46.80;25.80;;;;;;;-2.97;84.10;98345.50;116919;1177;69015;-69
2021/10/27 03:21:16;;;;;;;50.40;24.00;;;;;;;-3.01;84.72;98347.14;116988;1177;59526;-69
2021/10/27 03:23:46;;;;;;;48.70;27.20;;;;;;;-3.04;85.23;98342.67;117014;1177;59970;-69
2021/10/27 03:26:15;;;;;;;47.90;26.60;;;;;;;-3.09;84.63;98344.90;116998;1177;71354;-71
2021/10/27 03:28:44;;;;;;;50.30;27.00;;;;;;;-3.10;85.35;98344.77;116923;1180;68216;-73
2021/10/27 03:31:14;;;;;;;52.20;30.70;;;;;;;-3.11;84.91;98340.95;116915;1177;68449;-72
2021/10/27 03:33:44;;;;;;;46.60;26.00;;;;;;;-3.09;85.85;98338.23;117024;1177;59533;-69
2021/10/27 03:36:14;;;;;;;52.60;28.00;;;;;;;-3.10;85.73;98341.98;116945;1177;59543;-70
2021/10/27 03:38:43;;;;;;;43.30;24.00;;;;;;;-3.13;84.95;98344.67;117013;1177;71422;-70
2021/10/27 03:41:13;;;;;;;56.60;33.20;;;;;;;-3.15;84.56;98345.05;116965;1177;68424;-71
2021/10/27 03:43:43;;;;;;;39.50;19.90;;;;;;;-3.15;85.56;98342.96;116979;1177;68399;-69
2021/10/27 03:46:13;;;;;;;46.30;23.60;;;;;;;-3.11;87.56;98346.89;116930;1177;59510;-69
2021/10/27 03:48:44;;;;;;;46.20;26.00;;;;;;;-3.13;86.99;98346.52;117014;1177;59494;-69
2021/10/27 03:51:14;;;;;;;50.90;27.50;;;;;;;-3.13;86.87;98349.86;117008;1177;70604;-72
2021/10/27 03:53:43;;;;;;;43.50;25.90;;;;;;;-3.13;85.81;98354.81;116928;1177;67431;-71
2021/10/27 03:56:12;;;;;;;45.50;25.70;;;;;;;-3.16;85.35;98356.17;116925;1177;69091;-72
2021/10/27 03:58:42;;;;;;;48.10;27.50;;;;;;;-3.17;84.85;98355.13;116988;1177;59501;-73
2021/10/27 04:01:13;;;;;;;49.40;26.70;;;;;;;-3.17;84.12;98355.83;117006;1177;59565;-71
2021/10/27 04:03:43;;;;;;;44.40;26.10;;;;;;;-3.17;84.34;98360.01;117019;1177;71374;-70
2021/10/27 04:06:12;;;;;;;42.30;24.30;;;;;;;-3.23;83.76;98356.11;117032;1177;67685;-70
2021/10/27 04:08:42;;;;;;;38.40;20.90;;;;;;;-3.29;84.82;98349.73;116871;1178;68447;-70
2021/10/27 04:11:12;;;;;;;41.70;25.50;;;;;;;-3.34;85.52;98354.84;116926;1177;59593;-69
2021/10/27 04:13:42;;;;;;;38.40;21.30;;;;;;;-3.38;84.92;98355.17;116941;1177;59531;-69
2021/10/27 04:16:11;;;;;;;40.80;22.00;;;;;;;-3.40;85.00;98354.93;116968;1177;71398;-71
2021/10/27 04:18:41;;;;;;;48.40;26.00;;;;;;;-3.43;84.76;98353.24;117068;1177;68661;-70
2021/10/27 04:21:11;;;;;;;40.10;23.60;;;;;;;-3.46;84.99;98356.54;116738;1179;68379;-69
2021/10/27 04:23:41;;;;;;;52.80;27.00;;;;;;;-3.48;84.94;98360.76;116938;1177;59500;-71
2021/10/27 04:26:10;;;;;;;45.10;26.60;;;;;;;-3.51;84.42;98363.30;116874;1171;59544;-68
2021/10/27 04:28:39;;;;;;;47.20;26.10;;;;;;;-3.52;84.37;98362.57;117015;1177;71242;-71
2021/10/27 04:31:09;;;;;;;42.30;25.00;;;;;;;-3.52;84.49;98366.65;117026;1177;68251;-70
2021/10/27 04:33:38;;;;;;;50.20;26.80;;;;;;;-3.55;84.39;98364.59;116952;1169;69277;-69
2021/10/27 04:36:07;;;;;;;55.90;31.70;;;;;;;-3.57;84.06;98359.89;116994;1177;59539;-75
2021/10/27 04:38:37;;;;;;;57.70;32.10;;;;;;;-3.59;84.09;98361.33;117083;1170;59548;-73
2021/10/27 04:41:07;;;;;;;51.60;28.70;;;;;;;-3.62;85.04;98362.51;116975;1177;71363;-70
2021/10/27 04:43:37;;;;;;;68.90;39.70;;;;;;;-3.67;85.52;98370.77;116902;1177;67621;-69
2021/10/27 04:46:06;;;;;;;45.60;24.40;;;;;;;-3.71;85.12;98366.11;116825;1177;68289;-71
2021/10/27 04:48:35;;;;;;;53.50;29.30;;;;;;;-3.73;85.85;98366.16;116980;1177;59525;-75
2021/10/27 04:51:05;;;;;;;42.60;25.10;;;;;;;-3.76;85.18;98367.38;116918;1178;59577;-71
2021/10/27 04:53:34;;;;;;;40.50;22.20;;;;;;;-3.74;85.00;98369.55;116900;1177;70657;-71
2021/10/27 04:56:03;;;;;;;45.90;22.20;;;;;;;-3.73;86.22;98372.45;116927;1177;67865;-72
2021/10/27 04:58:33;;;;;;;48.00;27.20;;;;;;;-3.72;86.21;98372.88;116912;1177;68512;-74
2021/10/27 05:01:02;;;;;;;50.60;24.70;;;;;;;-3.73;85.54;98372.77;116905;1177;59542;-71
2021/10/27 05:03:31;;;;;;;48.20;25.90;;;;;;;-3.73;85.19;98375.23;116900;1177;59541;-68
2021/10/27 05:06:01;;;;;;;43.00;24.40;;;;;;;-3.73;85.64;98378.51;116884;1177;71391;-69
2021/10/27 05:08:32;;;;;;;39.40;21.10;;;;;;;-3.73;85.96;98376.31;116887;1177;66670;-71
2021/10/27 05:11:02;;;;;;;37.10;19.60;;;;;;;-3.69;86.66;98379.70;117020;1177;68449;-75
2021/10/27 05:13:31;;;;;;;38.10;22.40;;;;;;;-3.63;87.96;98387.23;116935;1177;59566;-70
2021/10/27 05:16:00;;;;;;;51.00;27.00;;;;;;;-3.59;88.10;98389.42;116919;1177;59549;-70
2021/10/27 05:18:29;;;;;;;51.20;28.90;;;;;;;-3.56;87.28;98382.66;116802;1178;71443;-71
2021/10/27 05:20:58;;;;;;;60.10;31.20;;;;;;;-3.52;86.19;98382.77;116965;1177;67678;-67
2021/10/27 05:23:26;;;;;;;59.40;33.20;;;;;;;-3.46;85.46;98384.39;116918;1180;68437;-71
2021/10/27 05:25:55;;;;;;;53.90;29.70;;;;;;;-3.42;84.89;98385.02;116948;1177;59525;-70
2021/10/27 05:28:25;;;;;;;47.70;26.80;;;;;;;-3.38;85.05;98390.20;116945;1177;59529;-71
2021/10/27 05:30:54;;;;;;;47.70;28.20;;;;;;;-3.36;85.00;98396.08;116872;1177;71936;-73
2021/10/27 05:33:23;;;;;;;33.90;19.70;;;;;;;-3.33;84.67;98402.09;117046;1177;67921;-74
2021/10/27 05:35:52;;;;;;;42.10;24.20;;;;;;;-3.26;86.00;98405.78;117015;1177;69261;-79
2021/10/27 05:38:21;;;;;;;48.30;24.90;;;;;;;-3.17;86.56;98411.61;116954;1177;59497;-72
2021/10/27 05:40:50;;;;;;;54.10;26.10;;;;;;;-3.08;86.68;98418.63;117250;1177;59509;-82
2021/10/27 05:43:20;;;;;;;51.70;29.20;;;;;;;-3.00;86.43;98419.40;116982;1173;71937;-74
2021/10/27 05:45:53;;;;;;;51.80;29.00;;;;;;;-2.93;85.84;98422.41;116974;1177;68365;-77
2021/10/27 05:48:25;;;;;;;60.40;31.80;;;;;;;-2.86;85.49;98422.86;117077;1177;68689;-81
2021/10/27 05:51:10;;;;;;;51.50;29.50;;;;;;;-2.82;84.66;98423.38;116979;1177;59535;-79
2021/10/27 05:56:27;;;;;;;51.70;29.80;;;;;;;-2.73;84.30;98429.84;116962;1177;70638;-80
2021/10/27 05:58:56;;;;;;;46.50;25.30;;;;;;;-2.65;84.34;98436.42;116963;1177;67663;-71
2021/10/27 06:01:25;;;;;;;51.20;28.30;;;;;;;-2.59;83.99;98438.91;116973;1177;68471;-71
2021/10/27 06:03:54;;;;;;;45.40;24.70;;;;;;;-2.50;83.54;98445.15;116963;1177;59535;-82
2021/10/27 06:06:23;;;;;;;50.40;28.60;;;;;;;-2.38;83.62;98452.40;116943;1177;59559;-79
2021/10/27 06:08:55;;;;;;;47.40;27.30;;;;;;;-2.26;83.69;98461.54;116986;1177;71794;-74
2021/10/27 06:11:24;;;;;;;65.90;33.50;;;;;;;-2.07;83.75;98470.39;116986;1177;68416;-73
2021/10/27 06:13:53;;;;;;;52.20;28.10;;;;;;;-1.69;83.48;98473.08;116951;1177;69519;-70
2021/10/27 06:16:22;;;;;;;49.20;26.30;;;;;;;-1.17;81.60;98478.34;117129;1176;59572;-81
2021/10/27 06:18:51;;;;;;;90.10;47.80;;;;;;;-0.62;79.92;98481.81;117051;1177;59529;-73
2021/10/27 06:21:20;;;;;;;95.10;53.50;;;;;;;-0.09;78.48;98484.06;117067;1177;71177;-73
2021/10/27 06:23:50;;;;;;;82.90;47.90;;;;;;;0.49;80.62;98488.41;116998;1177;67624;-74
2021/10/27 06:26:21;;;;;;;93.50;50.90;;;;;;;1.07;80.02;98493.42;117010;1177;69267;-75
2021/10/27 06:29:01;;;;;;;79.80;49.00;;;;;;;1.57;78.67;98494.85;117413;1177;59528;-83
2021/10/27 06:31:41;;;;;;;67.20;40.60;;;;;;;2.03;74.32;98500.25;116870;1177;59592;-80
2021/10/27 06:45:56;;;;;;;54.60;33.80;;;;;;;3.49;74.13;98508.34;116994;1177;69696;-71
2021/10/27 06:47:56;;;;;;;68.20;41.40;;;;;;;4.69;62.66;98502.69;116978;1174;71411;-81
2021/10/27 06:50:25;;;;;;;89.80;51.10;;;;;;;4.92;62.53;98502.22;117206;1177;67867;-81
2021/10/27 06:52:54;;;;;;;82.90;47.30;;;;;;;5.11;60.95;98502.89;117038;1177;69383;-71
2021/10/27 06:55:24;;;;;;;74.80;45.60;;;;;;;5.23;58.18;98503.23;117070;1177;59500;-77
2021/10/27 06:57:54;;;;;;;86.60;49.40;;;;;;;5.20;57.92;98504.60;116985;1177;59585;-72
2021/10/27 07:00:35;;;;;;;74.40;44.90;;;;;;;5.54;58.10;98513.14;117046;1177;70618;-82
2021/10/27 07:16:45;;;;;;;77.80;47.50;;;;;;;7.64;51.78;98511.41;117032;1177;66640;-78
2021/10/27 07:19:14;;;;;;;76.70;47.00;;;;;;;8.18;52.77;98505.44;117082;1177;69903;-77
2021/10/27 07:21:43;;;;;;;63.60;42.10;;;;;;;7.74;52.41;98510.15;117252;1177;59461;-77
2021/10/27 07:24:13;;;;;;;62.90;38.20;;;;;;;8.14;51.58;98510.02;117049;1174;59498;-77
2021/10/27 07:26:42;;;;;;;;;;;;;;;8.75;51.42;98509.27;117070;1177;70571;-79
2021/10/27 07:29:16;;;;;;;46.30;30.60;;;;;;;9.18;50.81;98504.27;117006;1177;68209;-77
2021/10/27 07:31:50;;;;;;;40.50;27.90;;;;;;;9.54;49.44;98505.92;116918;1177;69211;-82
2021/10/27 07:34:19;;;;;;;36.70;25.90;;;;;;;9.75;48.75;98503.69;117008;1176;59542;-75
2021/10/27 07:42:22;;;;;;;37.00;25.80;;;;;;;10.30;46.87;98497.38;116956;1177;68441;-71
2021/10/27 07:44:52;;;;;;;32.80;23.00;;;;;;;10.66;46.20;98498.22;117284;1177;69179;-70
2021/10/27 07:47:20;;;;;;;34.30;21.90;;;;;;;11.00;44.89;98496.02;117840;1177;59498;-70
2021/10/27 07:49:49;;;;;;;30.60;22.60;;;;;;;11.05;45.10;98492.71;117834;1177;59545;-71
2021/10/27 07:52:19;;;;;;;29.30;20.30;;;;;;;11.21;44.89;98495.48;117859;1176;70592;-69
2021/10/27 07:54:48;;;;;;;26.00;18.70;;;;;;;11.02;45.08;98497.42;117889;1176;68263;-71
2021/10/27 07:57:19;;;;;;;28.20;19.00;;;;;;;10.41;45.62;98508.09;117710;1177;68110;-69
2021/10/27 07:59:48;;;;;;;28.50;17.80;;;;;;;10.95;44.65;98509.01;117808;1176;59527;-69
2021/10/27 08:02:17;;;;;;;31.20;19.60;;;;;;;11.50;43.95;98509.70;117800;1177;58642;-70
2021/10/27 08:04:46;;;;;;;38.60;28.20;;;;;;;12.06;42.78;98507.27;117992;1176;70629;-70
2021/10/27 08:07:16;;;;;;;40.10;28.40;;;;;;;13.00;41.49;98501.74;117953;1177;68379;-70
2021/10/27 08:09:44;;;;;;;39.50;29.80;;;;;;;13.31;40.17;98497.50;117846;1176;69355;-70
2021/10/27 08:12:14;;;;;;;42.00;29.70;;;;;;;13.41;39.67;98494.34;117980;1176;59525;-70
2021/10/27 08:14:46;;;;;;;31.90;23.70;;;;;;;13.73;39.08;98495.54;118200;1176;58192;-71
2021/10/27 08:17:21;;;;;;;33.40;25.80;;;;;;;13.79;38.31;98490.92;117955;1177;71324;-69
2021/10/27 08:19:50;;;;;;;34.00;24.60;;;;;;;14.45;37.56;98477.08;118088;1176;68801;-71
2021/10/27 08:22:20;;;;;;;37.90;25.10;;;;;;;14.67;36.38;98473.76;118100;1176;69189;-74
2021/10/27 08:24:52;;;;;;;40.90;25.80;;;;;;;14.51;36.21;98476.20;118161;1177;59437;-73
2021/10/27 08:27:32;;;;;;;39.30;28.70;;;;;;;14.03;37.62;98480.30;118077;1177;59465;-69
2021/10/27 08:30:07;;;;;;;46.70;30.90;;;;;;;14.20;36.51;98482.91;118172;1177;70630;-70
2021/10/27 08:32:52;;;;;;;53.40;35.70;;;;;;;13.78;37.16;98483.30;118097;1177;67794;-78
2021/10/27 08:35:22;;;;;;;45.50;31.80;;;;;;;13.46;37.79;98483.05;118010;1177;69842;-69
2021/10/27 08:37:51;;;;;;;41.00;29.70;;;;;;;13.17;38.43;98478.73;118048;1177;59551;-70
2021/10/27 08:40:20;;;;;;;39.30;29.50;;;;;;;13.36;38.47;98478.69;118159;1177;58685;-74
2021/10/27 08:42:50;;;;;;;43.70;29.80;;;;;;;13.90;37.79;98477.11;117939;1177;70390;-69
2021/10/27 08:45:19;;;;;;;38.30;27.30;;;;;;;14.30;36.61;98482.52;118165;1179;68960;-69
2021/10/27 08:47:52;;;;;;;40.00;28.20;;;;;;;14.51;36.78;98480.83;118157;1177;68480;-70
2021/10/27 08:50:23;;;;;;;39.30;26.50;;;;;;;14.94;35.23;98483.14;117970;1177;59488;-77
2021/10/27 08:52:53;;;;;;;36.60;28.10;;;;;;;15.12;34.61;98482.45;118027;1177;59493;-72
2021/10/27 08:55:22;;;;;;;39.00;26.90;;;;;;;14.93;34.74;98490.11;117941;1177;71404;-69
2021/10/27 08:57:51;;;;;;;41.60;30.50;;;;;;;15.25;34.31;98489.73;118048;1177;68541;-77
2021/10/27 09:00:49;;;;;;;37.90;28.20;;;;;;;15.83;34.00;98487.36;117966;1177;68337;-75
2021/10/27 09:03:39;;;;;;;42.70;30.60;;;;;;;16.03;33.11;98490.61;117883;1177;59528;-72
2021/10/27 09:06:32;;;;;;;38.10;30.10;;;;;;;16.35;32.37;98488.59;117943;1177;59483;-71
2021/10/27 10:04:30;;;;;;;54.10;36.60;;;;;;;18.76;28.08;98474.77;117512;1177;59499;-76
2021/10/27 10:07:02;;;;;;;55.20;35.80;;;;;;;18.81;27.99;98470.51;117347;1177;71369;-74
2021/10/27 10:09:36;;;;;;;48.80;35.00;;;;;;;19.14;27.75;98467.27;117474;1177;68256;-71
2021/10/27 10:12:07;;;;;;;58.80;34.30;;;;;;;19.58;27.03;98471.08;117566;1177;69185;-71
2021/10/27 10:14:38;;;;;;;49.70;33.30;;;;;;;19.82;26.99;98467.13;117441;1177;59608;-72
2021/10/27 10:17:08;;;;;;;57.00;33.50;;;;;;;20.40;25.31;98469.91;117588;1176;59450;-70
2021/10/27 10:19:41;;;;;;;;;;;;;;;19.73;26.63;98467.19;117822;1176;71451;-72
2021/10/27 10:22:35;;;;;;;47.20;31.20;;;;;;;20.23;25.73;98462.70;117745;1177;68358;-72
2021/10/27 10:25:22;;;;;;;44.10;31.20;;;;;;;20.51;25.08;98459.96;117502;1177;69243;-71
2021/10/27 10:28:19;;;;;;;45.90;31.80;;;;;;;19.90;25.87;98453.34;117458;1177;59529;-73
2021/10/27 10:30:55;;;;;;;49.60;30.90;;;;;;;19.59;26.65;98449.38;117335;1177;59558;-74
2021/10/27 10:33:44;;;;;;;43.10;29.10;;;;;;;19.93;25.40;98449.67;117222;1176;71373;-71
2021/10/27 10:36:24;;;;;;;42.50;29.20;;;;;;;19.72;25.97;98441.21;117177;1177;68244;-72
2021/10/27 10:39:12;;;;;;;43.20;29.10;;;;;;;19.21;26.60;98439.55;117067;1176;69273;-70
2021/10/27 11:02:05;;;;;;;38.90;22.60;;;;;;;20.09;25.20;98418.98;117377;1176;70377;-77
2021/10/27 11:22:54;;;;;;;36.00;24.00;;;;;;;21.81;23.21;98398.73;117079;1177;68624;-79
2021/10/27 11:47:46;;;;;;;26.30;20.60;;;;;;;22.91;22.21;98380.34;117043;1177;69052;-73
2021/10/27 11:50:18;;;;;;;30.70;22.60;;;;;;;23.40;22.03;98381.18;116969;1177;69637;-69
2021/10/27 11:52:50;;;;;;;32.40;21.70;;;;;;;23.22;22.09;98378.51;117094;1177;59511;-72
2021/10/27 11:55:21;;;;;;;29.00;21.60;;;;;;;23.32;21.70;98381.79;117136;1177;59531;-76
2021/10/27 11:57:53;;;;;;;31.40;22.20;;;;;;;23.58;21.69;98379.64;117050;1177;70612;-79
2021/10/27 12:00:32;;;;;;;33.90;22.50;;;;;;;23.65;21.59;98373.50;117096;1176;68285;-73
2021/10/27 12:03:10;;;;;;;28.10;22.10;;;;;;;23.82;20.72;98375.48;116997;1176;69077;-73
2021/10/27 12:19:05;;;;;;;33.50;25.00;;;;;;;23.50;21.23;98361.14;117012;1169;59535;-70
2021/10/27 12:21:35;;;;;;;32.10;24.30;;;;;;;23.71;21.80;98358.94;116980;1177;59545;-72
2021/10/27 12:24:04;;;;;;;37.40;25.20;;;;;;;23.98;21.17;98356.59;117138;1177;70692;-75
2021/10/27 12:29:34;;;;;;;28.00;21.80;;;;;;;24.17;20.39;98353.23;117144;1177;69274;-74
2021/10/27 12:32:11;;;;;;;25.90;21.60;;;;;;;23.89;21.05;98352.73;117231;1177;59535;-71
2021/10/27 12:34:47;;;;;;;30.70;21.80;;;;;;;23.86;21.23;98354.27;117313;1178;59503;-73
2021/10/27 12:40:27;;;;;;;29.80;23.00;;;;;;;24.37;20.84;98352.31;117579;1177;68374;-76
2021/10/27 12:43:02;;;;;;;30.20;21.40;;;;;;;24.53;19.69;98346.68;117431;1177;69007;-76
2021/10/27 12:45:51;;;;;;;30.80;21.40;;;;;;;24.46;19.76;98349.66;117608;1177;59535;-74
2021/10/27 12:48:38;;;;;;;30.00;22.20;;;;;;;23.91;20.47;98349.78;118026;1176;59471;-79
2021/10/27 12:51:11;;;;;;;26.00;19.40;;;;;;;24.24;20.45;98351.67;118031;1176;71145;-74
2021/10/27 12:53:46;;;;;;;31.40;20.50;;;;;;;23.79;20.49;98345.34;117744;1177;67867;-82
2021/10/27 12:56:22;;;;;;;29.90;20.50;;;;;;;24.01;20.57;98347.59;117996;1176;68312;-73
2021/10/27 12:59:05;;;;;;;27.20;21.20;;;;;;;24.34;20.22;98346.40;117676;1176;59668;-75
2021/10/27 13:13:05;;;;;;;22.50;15.80;;;;;;;23.80;20.16;98350.14;117241;1176;59600;-70
2021/10/27 13:32:21;;;;;;;23.00;15.30;;;;;;;23.49;20.36;98349.86;117003;1177;71349;-80
2021/10/27 13:34:50;;;;;;;25.90;15.20;;;;;;;23.11;20.92;98349.13;116959;1174;68374;-76
2021/10/27 13:37:20;;;;;;;24.60;15.40;;;;;;;22.34;21.60;98351.33;116956;1177;69288;-74
2021/10/27 13:39:51;;;;;;;23.60;15.50;;;;;;;22.97;20.90;98348.57;117036;1176;59494;-73
2021/10/27 13:42:25;;;;;;;24.80;16.00;;;;;;;22.44;21.19;98348.02;117060;1177;59468;-81
2021/10/27 13:45:03;;;;;;;21.10;14.90;;;;;;;22.65;21.05;98345.84;117033;1177;71751;-81
2021/10/27 13:58:39;;;;;;;20.70;15.30;;;;;;;22.75;21.27;98338.13;117558;1177;70169;-76
2021/10/27 14:09:53;;;;;;;20.80;15.50;;;;;;;22.33;21.93;98342.31;116960;1177;59531;-74
2021/10/27 14:12:38;;;;;;;23.30;15.10;;;;;;;22.01;22.41;98339.77;117043;1177;71689;-74
2021/10/27 14:15:32;;;;;;;26.40;15.70;;;;;;;21.79;22.75;98340.49;117068;1176;68292;-69
2021/10/27 15:19:57;;;;;;;31.60;16.80;;;;;;;10.46;43.80;98371.02;117065;1176;59520;-73
2021/10/27 15:25:31;;;;;;;26.40;14.90;;;;;;;9.82;45.53;98372.58;116992;1177;67918;-72
2021/10/27 15:41:28;;;;;;;90.80;46.00;;;;;;;8.49;48.18;98378.55;117581;1177;69350;-82
2021/10/27 15:44:17;;;;;;;70.60;39.50;;;;;;;8.35;45.58;98380.66;116956;1171;59517;-76
2021/10/27 15:52:23;;;;;;;50.90;28.70;;;;;;;7.91;47.20;98392.73;116952;1177;67524;-76
2021/10/27 15:54:52;;;;;;;50.80;29.90;;;;;;;7.78;47.01;98394.12;116895;1178;69879;-85
2021/10/27 15:57:21;;;;;;;47.50;28.60;;;;;;;7.63;47.23;98393.52;117005;1177;59554;-85
2021/10/27 15:59:54;;;;;;;43.60;26.00;;;;;;;7.46;50.56;98399.30;117096;1177;59535;-76
2021/10/27 16:02:23;;;;;;;72.30;36.10;;;;;;;7.31;49.76;98399.95;117030;1177;72062;-80
2021/10/27 16:04:53;;;;;;;102.30;52.00;;;;;;;7.16;50.86;98400.52;117054;1176;67793;-75
2021/10/27 16:07:24;;;;;;;106.80;53.90;;;;;;;6.98;53.15;98404.84;117015;1177;68999;-81
2021/10/27 16:09:59;;;;;;;100.20;51.80;;;;;;;6.82;52.75;98404.12;117054;1177;59501;-75
2021/10/27 16:12:28;;;;;;;89.50;44.10;;;;;;;6.69;52.59;98410.41;117061;1177;59534;-75
2021/10/27 16:14:58;;;;;;;91.60;46.70;;;;;;;6.63;55.09;98410.84;117003;1178;72216;-70
2021/10/27 16:17:27;;;;;;;89.90;46.30;;;;;;;6.52;53.22;98411.47;116974;1178;68991;-88
2021/10/27 16:19:55;;;;;;;79.70;44.00;;;;;;;6.41;53.11;98411.19;116973;1179;68006;-75
2021/10/27 16:22:26;;;;;;;80.90;43.80;;;;;;;6.32;52.11;98412.27;116948;1177;59517;-76
2021/10/27 16:24:55;;;;;;;72.30;40.30;;;;;;;6.21;53.82;98411.60;116955;1177;59521;-72
2021/10/27 16:27:25;;;;;;;68.20;39.00;;;;;;;6.14;53.85;98411.04;117006;1177;71151;-72
2021/10/27 16:29:55;;;;;;;64.50;36.30;;;;;;;6.07;53.78;98413.98;116995;1175;67192;-74
2021/10/27 16:32:24;;;;;;;62.60;34.70;;;;;;;6.01;53.74;98416.71;116962;1177;69163;-79